sensor_id;sensor_type;location;lat;lon;timestamp;pressure;altitude;pressure_sealevel;temperature;humidity
76853;BME280;65825;52.232;10.566;2023-06-22T00:00:51;101024.88;;;24.37;55.35
76853;BME280;65825;52.232;10.566;2023-06-22T00:03:20;101021.66;;;24.43;55.30
76853;BME280;65825;52.232;10.566;2023-06-22T00:05:46;101022.50;;;24.55;55.01
76853;BME280;65825;52.232;10.566;2023-06-22T00:08:11;101026.31;;;24.41;55.55
76853;BME280;65825;52.232;10.566;2023-06-22T00:10:37;101023.78;;;24.40;55.62
76853;BME280;65825;52.232;10.566;2023-06-22T00:13:02;101021.59;;;24.34;55.61
76853;BME280;65825;52.232;10.566;2023-06-22T00:15:27;101029.69;;;24.34;55.81
76853;BME280;65825;52.232;10.566;2023-06-22T00:17:53;101023.66;;;24.30;55.55
76853;BME280;65825;52.232;10.566;2023-06-22T00:20:18;101025.63;;;24.28;55.33
76853;BME280;65825;52.232;10.566;2023-06-22T00:22:46;101021.59;;;24.34;55.68
76853;BME280;65825;52.232;10.566;2023-06-22T00:25:13;101032.28;;;24.13;56.42
76853;BME280;65825;52.232;10.566;2023-06-22T00:27:38;101032.28;;;24.13;55.78
76853;BME280;65825;52.232;10.566;2023-06-22T00:30:04;101026.28;;;24.10;56.51
76853;BME280;65825;52.232;10.566;2023-06-22T00:32:29;101032.63;;;24.31;55.71
76853;BME280;65825;52.232;10.566;2023-06-22T00:34:54;101035.72;;;24.26;56.17
76853;BME280;65825;52.232;10.566;2023-06-22T00:37:20;101037.63;;;24.35;55.64
76853;BME280;65825;52.232;10.566;2023-06-22T00:39:51;101045.69;;;24.46;55.81
76853;BME280;65825;52.232;10.566;2023-06-22T00:42:16;101048.84;;;24.51;55.55
76853;BME280;65825;52.232;10.566;2023-06-22T00:44:42;101060.75;;;24.48;55.90
76853;BME280;65825;52.232;10.566;2023-06-22T00:47:07;101054.78;;;24.45;55.46
76853;BME280;65825;52.232;10.566;2023-06-22T00:49:32;101059.06;;;24.48;54.97
76853;BME280;65825;52.232;10.566;2023-06-22T00:51:58;101057.34;;;24.47;54.52
76853;BME280;65825;52.232;10.566;2023-06-22T00:54:24;101067.56;;;24.43;54.97
76853;BME280;65825;52.232;10.566;2023-06-22T00:56:53;101060.28;;;24.43;55.12
76853;BME280;65825;52.232;10.566;2023-06-22T00:59:23;101051.84;;;24.48;55.06
76853;BME280;65825;52.232;10.566;2023-06-22T01:01:48;101054.59;;;24.58;55.33
76853;BME280;65825;52.232;10.566;2023-06-22T01:04:13;101049.66;;;24.42;55.15
76853;BME280;65825;52.232;10.566;2023-06-22T01:06:46;101041.56;;;24.42;55.41
76853;BME280;65825;52.232;10.566;2023-06-22T01:09:27;101041.06;;;24.37;55.04
76853;BME280;65825;52.232;10.566;2023-06-22T01:11:57;101030.16;;;24.27;55.13
76853;BME280;65825;52.232;10.566;2023-06-22T01:14:35;101017.94;;;24.24;55.28
76853;BME280;65825;52.232;10.566;2023-06-22T01:17:05;101021.94;;;24.29;54.94
76853;BME280;65825;52.232;10.566;2023-06-22T01:19:46;101011.22;;;24.07;55.39
76853;BME280;65825;52.232;10.566;2023-06-22T01:22:21;101012.19;;;23.84;56.35
76853;BME280;65825;52.232;10.566;2023-06-22T01:25:00;101013.94;;;23.96;55.63
76853;BME280;65825;52.232;10.566;2023-06-22T01:30:27;101011.22;;;23.63;56.85
76853;BME280;65825;52.232;10.566;2023-06-22T01:32:54;101009.78;;;23.48;57.01
76853;BME280;65825;52.232;10.566;2023-06-22T01:35:21;101007.31;;;23.56;56.54
76853;BME280;65825;52.232;10.566;2023-06-22T01:37:46;101009.88;;;23.68;56.20
76853;BME280;65825;52.232;10.566;2023-06-22T01:40:12;101007.94;;;23.48;56.37
76853;BME280;65825;52.232;10.566;2023-06-22T01:42:38;100995.81;;;23.54;56.31
76853;BME280;65825;52.232;10.566;2023-06-22T01:45:05;100985.75;;;23.45;56.50
76853;BME280;65825;52.232;10.566;2023-06-22T01:47:31;100999.63;;;23.41;56.62
76853;BME280;65825;52.232;10.566;2023-06-22T01:49:57;101003.44;;;23.03;57.91
76853;BME280;65825;52.232;10.566;2023-06-22T01:52:22;100999.41;;;22.98;58.02
76853;BME280;65825;52.232;10.566;2023-06-22T01:54:48;101002.09;;;22.98;58.08
76853;BME280;65825;52.232;10.566;2023-06-22T01:57:13;101000.88;;;23.02;57.85
76853;BME280;65825;52.232;10.566;2023-06-22T02:02:15;100996.59;;;23.10;57.79
76853;BME280;65825;52.232;10.566;2023-06-22T02:04:48;100993.34;;;23.18;57.39
76853;BME280;65825;52.232;10.566;2023-06-22T02:07:17;100983.97;;;23.11;57.57
76853;BME280;65825;52.232;10.566;2023-06-22T02:09:47;100985.44;;;23.04;57.83
76853;BME280;65825;52.232;10.566;2023-06-22T02:12:17;100986.66;;;23.00;58.15
76853;BME280;65825;52.232;10.566;2023-06-22T02:14:44;100978.56;;;23.00;58.07
76853;BME280;65825;52.232;10.566;2023-06-22T02:17:11;100982.13;;;23.00;57.93
76853;BME280;65825;52.232;10.566;2023-06-22T02:19:37;100986.09;;;23.18;57.45
76853;BME280;65825;52.232;10.566;2023-06-22T02:22:03;100991.44;;;23.07;57.42
76853;BME280;65825;52.232;10.566;2023-06-22T02:24:29;100997.44;;;23.11;57.48
76853;BME280;65825;52.232;10.566;2023-06-22T02:26:57;100998.91;;;22.93;58.07
76853;BME280;65825;52.232;10.566;2023-06-22T02:29:23;100992.75;;;22.91;58.06
76853;BME280;65825;52.232;10.566;2023-06-22T02:31:48;100984.56;;;22.92;57.92
76853;BME280;65825;52.232;10.566;2023-06-22T02:34:13;101004.28;;;22.93;57.58
76853;BME280;65825;52.232;10.566;2023-06-22T02:36:43;101007.09;;;22.91;58.00
76853;BME280;65825;52.232;10.566;2023-06-22T02:39:18;101006.22;;;22.91;57.95
76853;BME280;65825;52.232;10.566;2023-06-22T02:41:43;101010.28;;;22.96;57.91
76853;BME280;65825;52.232;10.566;2023-06-22T02:44:09;101006.13;;;23.03;57.86
76853;BME280;65825;52.232;10.566;2023-06-22T02:46:35;101007.50;;;23.09;57.70
76853;BME280;65825;52.232;10.566;2023-06-22T02:49:01;101008.09;;;23.12;57.18
76853;BME280;65825;52.232;10.566;2023-06-22T02:51:26;101014.09;;;23.16;57.15
76853;BME280;65825;52.232;10.566;2023-06-22T02:53:51;101012.50;;;23.13;56.91
76853;BME280;65825;52.232;10.566;2023-06-22T02:56:21;101016.28;;;23.11;57.25
76853;BME280;65825;52.232;10.566;2023-06-22T02:58:50;101025.88;;;23.15;57.27
76853;BME280;65825;52.232;10.566;2023-06-22T03:01:15;101030.81;;;23.21;57.12
76853;BME280;65825;52.232;10.566;2023-06-22T03:03:40;101030.81;;;23.21;56.86
76853;BME280;65825;52.232;10.566;2023-06-22T03:06:06;101033.38;;;23.23;56.58
76853;BME280;65825;52.232;10.566;2023-06-22T03:08:31;101039.16;;;23.29;56.85
76853;BME280;65825;52.232;10.566;2023-06-22T03:10:56;101047.25;;;23.29;56.47
76853;BME280;65825;52.232;10.566;2023-06-22T03:13:21;101048.22;;;23.39;56.65
76853;BME280;65825;52.232;10.566;2023-06-22T03:15:47;101061.25;;;23.10;57.13
76853;BME280;65825;52.232;10.566;2023-06-22T03:18:12;101058.72;;;23.20;56.90
76853;BME280;65825;52.232;10.566;2023-06-22T03:20:37;101060.16;;;23.13;57.21
76853;BME280;65825;52.232;10.566;2023-06-22T03:23:03;101064.91;;;23.55;56.47
76853;BME280;65825;52.232;10.566;2023-06-22T03:25:28;101063.69;;;23.48;56.43
76853;BME280;65825;52.232;10.566;2023-06-22T03:27:53;101065.75;;;23.44;56.75
76853;BME280;65825;52.232;10.566;2023-06-22T03:30:18;101065.91;;;23.65;56.36
76853;BME280;65825;52.232;10.566;2023-06-22T03:32:44;101074.47;;;23.59;56.53
76853;BME280;65825;52.232;10.566;2023-06-22T03:35:09;101075.47;;;23.80;55.81
76853;BME280;65825;52.232;10.566;2023-06-22T03:37:35;101075.84;;;23.98;55.35
76853;BME280;65825;52.232;10.566;2023-06-22T03:40:00;101074.72;;;24.22;54.82
76853;BME280;65825;52.232;10.566;2023-06-22T03:42:26;101069.28;;;24.33;54.89
76853;BME280;65825;52.232;10.566;2023-06-22T03:44:51;101074.47;;;24.14;55.42
76853;BME280;65825;52.232;10.566;2023-06-22T03:47:17;101077.91;;;24.16;55.80
76853;BME280;65825;52.232;10.566;2023-06-22T03:49:42;101077.44;;;24.11;55.51
76853;BME280;65825;52.232;10.566;2023-06-22T03:52:10;101075.44;;;24.24;55.50
76853;BME280;65825;52.232;10.566;2023-06-22T03:54:36;101084.47;;;24.45;54.85
76853;BME280;65825;52.232;10.566;2023-06-22T03:57:01;101074.69;;;24.33;54.84
76853;BME280;65825;52.232;10.566;2023-06-22T03:59:27;101081.81;;;24.77;54.30
76853;BME280;65825;52.232;10.566;2023-06-22T04:01:52;101083.13;;;24.82;54.61
76853;BME280;65825;52.232;10.566;2023-06-22T04:04:18;101074.66;;;24.87;54.99
76853;BME280;65825;52.232;10.566;2023-06-22T04:06:43;101074.53;;;24.88;55.06
76853;BME280;65825;52.232;10.566;2023-06-22T04:09:08;101073.38;;;25.22;54.42
76853;BME280;65825;52.232;10.566;2023-06-22T04:11:33;101057.53;;;24.97;54.23
76853;BME280;65825;52.232;10.566;2023-06-22T04:13:59;101055.50;;;25.10;53.93
76853;BME280;65825;52.232;10.566;2023-06-22T04:16:24;101054.06;;;25.47;53.66
76853;BME280;65825;52.232;10.566;2023-06-22T04:18:49;101051.09;;;25.50;53.59
76853;BME280;65825;52.232;10.566;2023-06-22T04:21:14;101049.03;;;25.63;53.42
76853;BME280;65825;52.232;10.566;2023-06-22T04:23:40;101051.25;;;25.79;52.95
76853;BME280;65825;52.232;10.566;2023-06-22T04:26:05;101050.13;;;25.81;53.03
76853;BME280;65825;52.232;10.566;2023-06-22T04:28:30;101050.78;;;26.04;52.84
76853;BME280;65825;52.232;10.566;2023-06-22T04:31:00;101051.38;;;26.07;52.57
76853;BME280;65825;52.232;10.566;2023-06-22T04:33:28;101042.56;;;26.15;52.34
76853;BME280;65825;52.232;10.566;2023-06-22T04:35:54;101047.81;;;26.07;52.16
76853;BME280;65825;52.232;10.566;2023-06-22T04:38:22;101047.97;;;26.15;52.01
76853;BME280;65825;52.232;10.566;2023-06-22T04:40:48;101041.81;;;26.03;51.73
76853;BME280;65825;52.232;10.566;2023-06-22T04:43:13;101045.53;;;26.12;51.51
76853;BME280;65825;52.232;10.566;2023-06-22T04:45:38;101040.81;;;26.14;51.23
76853;BME280;65825;52.232;10.566;2023-06-22T04:48:05;101036.44;;;26.22;51.19
76853;BME280;65825;52.232;10.566;2023-06-22T04:50:30;101032.59;;;26.25;51.41
76853;BME280;65825;52.232;10.566;2023-06-22T04:52:55;101040.34;;;26.48;50.85
76853;BME280;65825;52.232;10.566;2023-06-22T04:55:20;101036.47;;;26.32;51.38
76853;BME280;65825;52.232;10.566;2023-06-22T04:57:46;101038.91;;;26.44;51.80
76853;BME280;65825;52.232;10.566;2023-06-22T05:00:19;101035.53;;;26.61;51.51
76853;BME280;65825;52.232;10.566;2023-06-22T05:02:48;101038.66;;;26.76;50.94
76853;BME280;65825;52.232;10.566;2023-06-22T05:05:14;101035.13;;;26.75;50.97
76853;BME280;65825;52.232;10.566;2023-06-22T05:07:44;101032.09;;;26.97;50.82
76853;BME280;65825;52.232;10.566;2023-06-22T05:10:11;101037.53;;;26.78;51.09
76853;BME280;65825;52.232;10.566;2023-06-22T05:12:37;101041.22;;;26.87;50.57
76853;BME280;65825;52.232;10.566;2023-06-22T05:15:03;101035.25;;;26.93;50.43
76853;BME280;65825;52.232;10.566;2023-06-22T05:17:28;101033.81;;;27.17;50.42
76853;BME280;65825;52.232;10.566;2023-06-22T05:19:54;101037.38;;;26.99;51.40
76853;BME280;65825;52.232;10.566;2023-06-22T05:22:20;101035.38;;;27.10;51.06
76853;BME280;65825;52.232;10.566;2023-06-22T05:24:45;101041.78;;;27.00;51.15
76853;BME280;65825;52.232;10.566;2023-06-22T05:27:11;101035.22;;;27.12;50.35
76853;BME280;65825;52.232;10.566;2023-06-22T05:29:37;101034.50;;;27.10;50.50
76853;BME280;65825;52.232;10.566;2023-06-22T05:32:02;101041.94;;;27.17;50.37
76853;BME280;65825;52.232;10.566;2023-06-22T05:34:27;101047.91;;;27.30;50.43
76853;BME280;65825;52.232;10.566;2023-06-22T05:36:53;101042.25;;;27.70;50.19
76853;BME280;65825;52.232;10.566;2023-06-22T05:39:18;101035.31;;;27.48;49.57
76853;BME280;65825;52.232;10.566;2023-06-22T05:41:44;101028.63;;;27.33;49.96
76853;BME280;65825;52.232;10.566;2023-06-22T05:44:09;101027.78;;;27.33;49.75
76853;BME280;65825;52.232;10.566;2023-06-22T05:46:34;101024.44;;;27.94;49.26
76853;BME280;65825;52.232;10.566;2023-06-22T05:49:00;101023.81;;;28.00;48.67
76853;BME280;65825;52.232;10.566;2023-06-22T05:51:25;101017.72;;;27.98;48.58
76853;BME280;65825;52.232;10.566;2023-06-22T05:53:50;101013.66;;;27.39;48.73
76853;BME280;65825;52.232;10.566;2023-06-22T05:56:17;101009.69;;;27.70;48.75
76853;BME280;65825;52.232;10.566;2023-06-22T05:58:42;101014.22;;;27.79;47.87
76853;BME280;65825;52.232;10.566;2023-06-22T06:01:07;101012.03;;;27.82;48.72
76853;BME280;65825;52.232;10.566;2023-06-22T06:03:33;101013.09;;;27.72;48.58
76853;BME280;65825;52.232;10.566;2023-06-22T06:05:58;101019.16;;;27.93;48.57
76853;BME280;65825;52.232;10.566;2023-06-22T06:08:23;101025.84;;;27.98;48.23
76853;BME280;65825;52.232;10.566;2023-06-22T06:10:48;101025.28;;;27.95;47.85
76853;BME280;65825;52.232;10.566;2023-06-22T06:13:14;101023.75;;;28.10;47.96
76853;BME280;65825;52.232;10.566;2023-06-22T06:15:39;101023.56;;;28.48;47.11
76853;BME280;65825;52.232;10.566;2023-06-22T06:18:05;101028.03;;;28.39;46.95
76853;BME280;65825;52.232;10.566;2023-06-22T06:20:31;101027.66;;;28.52;47.04
76853;BME280;65825;52.232;10.566;2023-06-22T06:22:57;101022.16;;;28.61;47.16
76853;BME280;65825;52.232;10.566;2023-06-22T06:25:22;101021.63;;;28.58;46.87
76853;BME280;65825;52.232;10.566;2023-06-22T06:27:48;101025.56;;;28.63;47.63
76853;BME280;65825;52.232;10.566;2023-06-22T06:30:16;101017.56;;;28.44;47.95
76853;BME280;65825;52.232;10.566;2023-06-22T06:32:42;101022.31;;;28.60;47.81
76853;BME280;65825;52.232;10.566;2023-06-22T06:35:09;101018.66;;;28.51;48.05
76853;BME280;65825;52.232;10.566;2023-06-22T06:37:42;101023.94;;;28.53;48.40
76853;BME280;65825;52.232;10.566;2023-06-22T06:40:08;101018.66;;;28.69;47.90
76853;BME280;65825;52.232;10.566;2023-06-22T06:42:36;101018.53;;;28.53;48.21
76853;BME280;65825;52.232;10.566;2023-06-22T06:45:03;101008.88;;;28.58;47.58
76853;BME280;65825;52.232;10.566;2023-06-22T06:47:29;101009.56;;;28.78;47.26
76853;BME280;65825;52.232;10.566;2023-06-22T06:49:54;101018.19;;;29.08;47.26
76853;BME280;65825;52.232;10.566;2023-06-22T06:52:19;101014.84;;;28.62;48.15
76853;BME280;65825;52.232;10.566;2023-06-22T06:54:46;101014.69;;;28.81;47.01
76853;BME280;65825;52.232;10.566;2023-06-22T06:57:11;101012.38;;;29.03;46.23
76853;BME280;65825;52.232;10.566;2023-06-22T06:59:38;101017.59;;;29.48;45.86
76853;BME280;65825;52.232;10.566;2023-06-22T07:02:04;101015.13;;;29.54;45.69
76853;BME280;65825;52.232;10.566;2023-06-22T07:04:29;101025.13;;;29.28;45.21
76853;BME280;65825;52.232;10.566;2023-06-22T07:06:55;101025.09;;;29.03;45.24
76853;BME280;65825;52.232;10.566;2023-06-22T07:09:20;101020.38;;;29.30;46.10
76853;BME280;65825;52.232;10.566;2023-06-22T07:11:45;101032.38;;;29.20;44.65
76853;BME280;65825;52.232;10.566;2023-06-22T07:14:11;101021.03;;;29.24;44.35
76853;BME280;65825;52.232;10.566;2023-06-22T07:16:36;101020.09;;;29.41;43.88
76853;BME280;65825;52.232;10.566;2023-06-22T07:19:02;101017.03;;;29.62;43.70
76853;BME280;65825;52.232;10.566;2023-06-22T07:21:27;101018.31;;;29.75;44.01
76853;BME280;65825;52.232;10.566;2023-06-22T07:23:52;101027.56;;;30.32;43.67
76853;BME280;65825;52.232;10.566;2023-06-22T07:26:19;101025.53;;;30.42;42.78
76853;BME280;65825;52.232;10.566;2023-06-22T07:28:44;101018.28;;;30.82;41.86
76853;BME280;65825;52.232;10.566;2023-06-22T07:31:09;101012.69;;;30.92;41.97
76853;BME280;65825;52.232;10.566;2023-06-22T07:33:35;101006.72;;;31.04;41.46
76853;BME280;65825;52.232;10.566;2023-06-22T07:36:00;101004.81;;;31.13;41.84
76853;BME280;65825;52.232;10.566;2023-06-22T07:38:25;101011.16;;;31.21;42.25
76853;BME280;65825;52.232;10.566;2023-06-22T07:40:51;100999.69;;;31.34;41.57
76853;BME280;65825;52.232;10.566;2023-06-22T07:43:18;101004.78;;;31.53;40.63
76853;BME280;65825;52.232;10.566;2023-06-22T07:45:48;101001.41;;;31.97;39.93
76853;BME280;65825;52.232;10.566;2023-06-22T07:48:17;101003.97;;;32.21;39.39
76853;BME280;65825;52.232;10.566;2023-06-22T07:50:42;101001.50;;;32.65;38.10
76853;BME280;65825;52.232;10.566;2023-06-22T07:53:08;100997.94;;;33.24;37.86
76853;BME280;65825;52.232;10.566;2023-06-22T07:55:33;100994.00;;;33.26;37.12
76853;BME280;65825;52.232;10.566;2023-06-22T07:57:58;100994.31;;;33.60;36.75
76853;BME280;65825;52.232;10.566;2023-06-22T08:00:23;100989.09;;;34.80;34.79
76853;BME280;65825;52.232;10.566;2023-06-22T08:02:49;100994.31;;;35.78;34.90
76853;BME280;65825;52.232;10.566;2023-06-22T08:05:15;100989.13;;;35.28;33.21
76853;BME280;65825;52.232;10.566;2023-06-22T08:07:40;100991.19;;;35.54;33.69
76853;BME280;65825;52.232;10.566;2023-06-22T08:10:10;100991.13;;;34.36;34.70
76853;BME280;65825;52.232;10.566;2023-06-22T08:12:36;100984.59;;;34.37;35.51
76853;BME280;65825;52.232;10.566;2023-06-22T08:15:01;100982.81;;;33.65;35.71
76853;BME280;65825;52.232;10.566;2023-06-22T08:17:27;100992.91;;;33.79;35.23
76853;BME280;65825;52.232;10.566;2023-06-22T08:19:52;100993.47;;;34.03;35.47
76853;BME280;65825;52.232;10.566;2023-06-22T08:22:17;100990.69;;;34.32;35.15
76853;BME280;65825;52.232;10.566;2023-06-22T08:24:43;100992.28;;;34.27;35.20
76853;BME280;65825;52.232;10.566;2023-06-22T08:27:09;100990.13;;;32.76;36.89
76853;BME280;65825;52.232;10.566;2023-06-22T08:29:39;100995.13;;;33.83;36.17
76853;BME280;65825;52.232;10.566;2023-06-22T08:32:05;100991.69;;;33.67;35.40
76853;BME280;65825;52.232;10.566;2023-06-22T08:34:30;100994.63;;;33.80;35.70
76853;BME280;65825;52.232;10.566;2023-06-22T08:36:55;100997.34;;;33.65;35.25
76853;BME280;65825;52.232;10.566;2023-06-22T08:39:21;100993.69;;;33.21;36.51
76853;BME280;65825;52.232;10.566;2023-06-22T08:41:47;100989.78;;;33.38;35.96
76853;BME280;65825;52.232;10.566;2023-06-22T08:44:13;100990.72;;;33.31;37.10
76853;BME280;65825;52.232;10.566;2023-06-22T08:46:38;101002.88;;;32.91;37.78
76853;BME280;65825;52.232;10.566;2023-06-22T08:49:06;101001.34;;;32.89;37.72
76853;BME280;65825;52.232;10.566;2023-06-22T08:51:31;100985.91;;;33.76;36.21
76853;BME280;65825;52.232;10.566;2023-06-22T08:53:57;100991.50;;;34.68;34.86
76853;BME280;65825;52.232;10.566;2023-06-22T08:56:22;100980.31;;;35.12;34.03
76853;BME280;65825;52.232;10.566;2023-06-22T08:58:47;100981.66;;;35.22;34.38
76853;BME280;65825;52.232;10.566;2023-06-22T09:01:13;100981.69;;;35.01;34.31
76853;BME280;65825;52.232;10.566;2023-06-22T09:03:40;100982.56;;;35.63;33.81
76853;BME280;65825;52.232;10.566;2023-06-22T09:06:05;100980.44;;;35.59;34.24
76853;BME280;65825;52.232;10.566;2023-06-22T09:08:31;100985.19;;;34.89;34.24
76853;BME280;65825;52.232;10.566;2023-06-22T09:10:57;100980.34;;;33.99;36.26
76853;BME280;65825;52.232;10.566;2023-06-22T09:13:22;100981.63;;;34.17;36.08
76853;BME280;65825;52.232;10.566;2023-06-22T09:15:47;100974.94;;;33.76;36.50
76853;BME280;65825;52.232;10.566;2023-06-22T09:18:13;100966.28;;;33.58;37.83
76853;BME280;65825;52.232;10.566;2023-06-22T09:20:39;100968.63;;;32.73;38.23
76853;BME280;65825;52.232;10.566;2023-06-22T09:23:04;100966.41;;;33.13;38.24
76853;BME280;65825;52.232;10.566;2023-06-22T09:25:30;100953.03;;;34.05;36.82
76853;BME280;65825;52.232;10.566;2023-06-22T09:27:55;100959.38;;;34.83;35.00
76853;BME280;65825;52.232;10.566;2023-06-22T09:30:22;100948.41;;;35.72;33.61
76853;BME280;65825;52.232;10.566;2023-06-22T09:32:48;100941.59;;;36.09;32.99
76853;BME280;65825;52.232;10.566;2023-06-22T09:35:13;100935.38;;;36.60;32.40
76853;BME280;65825;52.232;10.566;2023-06-22T09:37:40;100933.38;;;38.28;29.53
76853;BME280;65825;52.232;10.566;2023-06-22T09:40:06;100924.19;;;40.81;25.49
76853;BME280;65825;52.232;10.566;2023-06-22T09:42:36;100925.00;;;40.70;25.07
76853;BME280;65825;52.232;10.566;2023-06-22T09:45:02;100921.59;;;39.80;27.19
76853;BME280;65825;52.232;10.566;2023-06-22T09:47:29;100922.88;;;38.12;30.22
76853;BME280;65825;52.232;10.566;2023-06-22T09:49:54;100912.34;;;37.13;30.11
76853;BME280;65825;52.232;10.566;2023-06-22T09:52:21;100925.22;;;36.54;31.42
76853;BME280;65825;52.232;10.566;2023-06-22T09:54:46;100915.09;;;37.07;30.65
76853;BME280;65825;52.232;10.566;2023-06-22T09:57:12;100928.13;;;37.63;29.77
76853;BME280;65825;52.232;10.566;2023-06-22T09:59:38;100928.50;;;40.66;26.22
76853;BME280;65825;52.232;10.566;2023-06-22T10:02:05;100926.88;;;41.34;25.79
76853;BME280;65825;52.232;10.566;2023-06-22T10:04:31;100914.63;;;38.37;28.85
76853;BME280;65825;52.232;10.566;2023-06-22T10:06:56;100921.88;;;37.04;31.38
76853;BME280;65825;52.232;10.566;2023-06-22T10:09:21;100910.38;;;35.08;34.25
76853;BME280;65825;52.232;10.566;2023-06-22T10:11:47;100915.22;;;35.06;34.37
76853;BME280;65825;52.232;10.566;2023-06-22T10:14:12;100910.09;;;34.75;34.57
76853;BME280;65825;52.232;10.566;2023-06-22T10:16:37;100904.81;;;35.01;35.83
76853;BME280;65825;52.232;10.566;2023-06-22T10:19:03;100898.59;;;35.14;34.56
76853;BME280;65825;52.232;10.566;2023-06-22T10:21:30;100899.78;;;35.32;34.52
76853;BME280;65825;52.232;10.566;2023-06-22T10:23:56;100914.03;;;35.15;34.62
76853;BME280;65825;52.232;10.566;2023-06-22T10:26:21;100909.31;;;35.36;34.71
76853;BME280;65825;52.232;10.566;2023-06-22T10:28:47;100905.88;;;35.00;34.25
76853;BME280;65825;52.232;10.566;2023-06-22T10:31:12;100917.84;;;34.09;36.23
76853;BME280;65825;52.232;10.566;2023-06-22T10:33:37;100913.34;;;34.01;36.59
76853;BME280;65825;52.232;10.566;2023-06-22T10:36:03;100912.41;;;34.51;35.48
76853;BME280;65825;52.232;10.566;2023-06-22T10:38:28;100914.59;;;34.76;34.24
76853;BME280;65825;52.232;10.566;2023-06-22T10:40:53;100906.69;;;34.94;33.95
76853;BME280;65825;52.232;10.566;2023-06-22T10:43:19;100907.44;;;36.63;31.92
76853;BME280;65825;52.232;10.566;2023-06-22T10:45:44;100901.03;;;38.97;28.18
76853;BME280;65825;52.232;10.566;2023-06-22T10:48:10;100905.53;;;38.92;29.13
76853;BME280;65825;52.232;10.566;2023-06-22T10:50:35;100898.09;;;41.00;26.44
76853;BME280;65825;52.232;10.566;2023-06-22T10:53:00;100899.00;;;47.84;18.43
76853;BME280;65825;52.232;10.566;2023-06-22T10:55:26;100893.06;;;51.51;14.10
76853;BME280;65825;52.232;10.566;2023-06-22T10:57:51;100892.44;;;52.74;12.72
76853;BME280;65825;52.232;10.566;2023-06-22T11:00:17;100879.03;;;53.41;12.00
76853;BME280;65825;52.232;10.566;2023-06-22T11:02:43;100877.28;;;54.52;10.58
76853;BME280;65825;52.232;10.566;2023-06-22T11:05:08;100869.19;;;52.47;12.24
76853;BME280;65825;52.232;10.566;2023-06-22T11:07:34;100858.53;;;53.57;11.13
76853;BME280;65825;52.232;10.566;2023-06-22T11:09:59;100859.28;;;54.57;11.55
76853;BME280;65825;52.232;10.566;2023-06-22T11:12:26;100851.88;;;53.62;11.63
76853;BME280;65825;52.232;10.566;2023-06-22T11:14:51;100854.38;;;53.55;11.58
76853;BME280;65825;52.232;10.566;2023-06-22T11:17:17;100846.91;;;48.65;15.15
76853;BME280;65825;52.232;10.566;2023-06-22T11:19:44;100857.28;;;52.36;12.71
76853;BME280;65825;52.232;10.566;2023-06-22T11:22:10;100854.78;;;54.30;12.50
76853;BME280;65825;52.232;10.566;2023-06-22T11:24:35;100855.94;;;53.95;12.69
76853;BME280;65825;52.232;10.566;2023-06-22T11:27:03;100843.13;;;55.29;11.93
76853;BME280;65825;52.232;10.566;2023-06-22T11:29:28;100826.06;;;51.48;13.78
76853;BME280;65825;52.232;10.566;2023-06-22T11:31:53;100834.38;;;46.62;16.49
76853;BME280;65825;52.232;10.566;2023-06-22T11:34:19;100824.38;;;47.54;15.55
76853;BME280;65825;52.232;10.566;2023-06-22T11:36:44;100810.03;;;46.52;17.37
76853;BME280;65825;52.232;10.566;2023-06-22T11:39:10;100811.66;;;45.22;18.54
76853;BME280;65825;52.232;10.566;2023-06-22T11:41:36;100803.56;;;42.65;20.96
76853;BME280;65825;52.232;10.566;2023-06-22T11:44:01;100797.25;;;42.20;22.31
76853;BME280;65825;52.232;10.566;2023-06-22T11:46:26;100798.03;;;43.68;21.42
76853;BME280;65825;52.232;10.566;2023-06-22T11:48:52;100796.06;;;48.14;16.70
76853;BME280;65825;52.232;10.566;2023-06-22T11:51:17;100791.25;;;49.05;14.47
76853;BME280;65825;52.232;10.566;2023-06-22T11:53:42;100787.31;;;47.82;16.22
76853;BME280;65825;52.232;10.566;2023-06-22T11:56:07;100785.06;;;50.43;13.94
76853;BME280;65825;52.232;10.566;2023-06-22T11:58:33;100782.31;;;49.27;15.30
76853;BME280;65825;52.232;10.566;2023-06-22T12:00:58;100786.72;;;49.75;14.35
76853;BME280;65825;52.232;10.566;2023-06-22T12:03:23;100774.00;;;50.33;14.41
76853;BME280;65825;52.232;10.566;2023-06-22T12:05:50;100768.75;;;51.58;12.38
76853;BME280;65825;52.232;10.566;2023-06-22T12:08:15;100760.00;;;52.17;11.97
76853;BME280;65825;52.232;10.566;2023-06-22T12:10:40;100762.41;;;51.74;12.15
76853;BME280;65825;52.232;10.566;2023-06-22T12:13:06;100771.41;;;52.42;11.62
76853;BME280;65825;52.232;10.566;2023-06-22T12:15:31;100745.81;;;49.50;14.02
76853;BME280;65825;52.232;10.566;2023-06-22T12:17:56;100750.53;;;49.92;13.31
76853;BME280;65825;52.232;10.566;2023-06-22T12:20:21;100735.56;;;49.96;13.72
76853;BME280;65825;52.232;10.566;2023-06-22T12:22:47;100731.88;;;47.31;15.31
76853;BME280;65825;52.232;10.566;2023-06-22T12:25:12;100724.63;;;48.97;14.69
76853;BME280;65825;52.232;10.566;2023-06-22T12:27:38;100728.63;;;47.62;16.14
76853;BME280;65825;52.232;10.566;2023-06-22T12:30:04;100721.75;;;49.81;14.59
76853;BME280;65825;52.232;10.566;2023-06-22T12:32:29;100725.50;;;51.13;13.18
76853;BME280;65825;52.232;10.566;2023-06-22T12:34:55;100724.88;;;52.23;12.48
76853;BME280;65825;52.232;10.566;2023-06-22T12:37:21;100722.47;;;51.37;12.77
76853;BME280;65825;52.232;10.566;2023-06-22T12:39:46;100716.06;;;53.24;11.28